スィクティフカル の空港の天気 - METARとTAF

Syktyvkar ( UUYY / SCW ) - ロシア スィクティフカル
飛行場実況気象(Metar)
観測時間10/19 21:00 MSK (10/19 18:00 UTC)
風向・風速西 5m/s 瞬間風速10m/s
視程10km以上
天気現象
全天の8割程度の雲 雲底高度 730m
気温6℃
湿度81%
気圧1002hPa
METARUUYY 191800Z 27005G10MPS 9999 BKN024CB 06/03 Q1002 R18/29//51 NOSIG RMK QFE743/0991
過去の天気等 Google飛行場航空写真 Wunderground天気予報

過去48時間のMETAR

飛行場予報(TAF)
発表時間: 10/19 20:00 MSK (10/19 17:00 UTC)
予報対象時間: 19日21時 MSK ~ 20日21時 MSK
風向・風速西 6m/s 瞬間風速 12m/s
視程6000m
全天の8割程度の雲 雲底高度 340m
全天の8割程度の積乱雲 雲底高度 610m
19日21時 MSK ~ 20日3時 MSK に一時的に
風向・風速西 14m/s
視程3100m
天気現象弱いしゅう雨
少しの雲 雲底高度 210m
全天の8割程度の積乱雲 雲底高度 460m
20日3時 MSK ~ 20日4時 MSK に徐々に
風向・風速西北西 5m/s 瞬間風速 10m/s
20日3時 MSK ~ 20日9時 MSK に一時的に
視程3100m
天気現象弱いしゅう雨
少しの雲 雲底高度 210m
全天の8割程度の積乱雲 雲底高度 460m
20日9時 MSK ~ 20日10時 MSK に徐々に
風向・風速北北西 5m/s 瞬間風速 11m/s
TAF UUYY 191700Z 1918/2018 27006G12MPS 6000 BKN011 BKN020CB
TEMPO 1918/1924 28014MPS 3100 -SHRA FEW007 BKN015CB
BECMG 2000/2001 30005G10MPS
TEMPO 2000/2006 3100 -SHRA FEW007 BKN015CB
BECMG 2006/2007 33005G11MPS